Un Pendik — TCOD2 — position and weather

sailwx.info

Track history (hours):
 
Tides and Currents Weather Stations Pressure Air Temp Water Temp Dewpoint Dewpoint Depression Visibility Wind Speed Wind Dir Waves Ship Positions

Un Pendik

Last reported at 2017-Feb-24 21:33 UTC. Time now 2017-Feb-24 21:42 UTC.
Position N 45°39' E 013°45'.

Length 193 m; draft 6.7 m.

Type: Ship (hazmat cat A). MMSI: 271000792.

Date/timePositionNaut miles runAvg speedWind from/ knotsBaromVisibWave heightAir tempDewpointWater temp
2017-Feb-24 21:33N 45°39' E 013°45'0 0.0
2017-Feb-24 20:33N 45°39' E 013°45'0 0.0
2017-Feb-24 19:33N 45°39' E 013°45'0 0.0
2017-Feb-24 18:33N 45°39' E 013°45'0 0.0
2017-Feb-24 17:33N 45°39' E 013°45'0 0.0
2017-Feb-24 16:33N 45°39' E 013°45'2 1.6
2017-Feb-24 15:34N 45°39' E 013°43'1919.2
2017-Feb-24 14:34N 45°28' E 013°20'1817.9
2017-Feb-24 13:33N 45°11' E 013°17'2020.0
2017-Feb-24 12:34N 44°52' E 013°28'2020.0
2017-Feb-24 11:33N 44°36' E 013°44'2020.0
2017-Feb-24 10:34N 44°19' E 013°59'2019.8
2017-Feb-24 09:33N 44°03' E 014°16'59416.9
2017-Feb-22 22:18N 37°31' E 024°05'1620.0
2017-Feb-22 21:29N 37°44' E 024°17'  
2017-Feb-18 05:33N 44°09' E 014°01'1919.1
2017-Feb-18 04:33N 44°25' E 013°46'1918.8
2017-Feb-18 03:33N 44°41' E 013°31'1918.7
2017-Feb-18 02:33N 44°56' E 013°17'1818.4
2017-Feb-18 01:33N 45°13' E 013°06'1817.9
2017-Feb-18 00:33N 45°30' E 013°15'1918.6
2017-Feb-17 23:33N 45°39' E 013°38'5 3.6
2017-Feb-17 22:15N 45°39' E 013°45'0 0.0
2017-Feb-17 21:33N 45°39' E 013°45'0 0.0
2017-Feb-17 20:26N 45°39' E 013°45'0 0.0
2017-Feb-17 19:32N 45°39' E 013°45'0 0.0
2017-Feb-17 18:31N 45°39' E 013°45'0 0.0
2017-Feb-17 17:31N 45°39' E 013°45'0 0.0
2017-Feb-17 16:31N 45°39' E 013°45'0 0.0
2017-Feb-17 15:24N 45°39' E 013°45'0 0.0
2017-Feb-17 14:33N 45°39' E 013°45'0 0.0
2017-Feb-17 13:33N 45°39' E 013°45'1110.6
2017-Feb-17 12:33N 45°34' E 013°31'1818.1
2017-Feb-17 11:33N 45°19' E 013°19'1919.3
2017-Feb-17 10:34N 44°60' E 013°23'2020.1
2017-Feb-17 09:33N 44°42' E 013°37'2020.1
2017-Feb-17 08:34N 44°25' E 013°53'2520.0
2017-Feb-17 07:19N 44°05' E 014°13'  
Track history (hours):
 
Tides and Currents Weather Stations Pressure Air Temp Water Temp Dewpoint Dewpoint Depression Visibility Wind Speed Wind Dir Waves Ship Positions

Un Pendik

Last reported at 2017-Feb-24 21:33 UTC. Time now 2017-Feb-24 21:42 UTC.
Position N 45°39' E 013°45'.

Length 193 m; draft 6.7 m.

Type: Ship (hazmat cat A). MMSI: 271000792.

Date/timePositionNaut miles runAvg speedWind from/ knotsBaromVisibWave heightAir tempDewpointWater temp
2017-Feb-24 21:33N 45°39' E 013°45'0 0.0
2017-Feb-24 20:33N 45°39' E 013°45'0 0.0
2017-Feb-24 19:33N 45°39' E 013°45'0 0.0
2017-Feb-24 18:33N 45°39' E 013°45'0 0.0
2017-Feb-24 17:33N 45°39' E 013°45'0 0.0
2017-Feb-24 16:33N 45°39' E 013°45'2 1.6
2017-Feb-24 15:34N 45°39' E 013°43'1919.2
2017-Feb-24 14:34N 45°28' E 013°20'1817.9
2017-Feb-24 13:33N 45°11' E 013°17'2020.0
2017-Feb-24 12:34N 44°52' E 013°28'2020.0
2017-Feb-24 11:33N 44°36' E 013°44'2020.0
2017-Feb-24 10:34N 44°19' E 013°59'2019.8
2017-Feb-24 09:33N 44°03' E 014°16'59416.9
2017-Feb-22 22:18N 37°31' E 024°05'1620.0
2017-Feb-22 21:29N 37°44' E 024°17'  
2017-Feb-18 05:33N 44°09' E 014°01'1919.1
2017-Feb-18 04:33N 44°25' E 013°46'1918.8
2017-Feb-18 03:33N 44°41' E 013°31'1918.7
2017-Feb-18 02:33N 44°56' E 013°17'1818.4
2017-Feb-18 01:33N 45°13' E 013°06'1817.9
2017-Feb-18 00:33N 45°30' E 013°15'1918.6
2017-Feb-17 23:33N 45°39' E 013°38'5 3.6
2017-Feb-17 22:15N 45°39' E 013°45'0 0.0
2017-Feb-17 21:33N 45°39' E 013°45'0 0.0
2017-Feb-17 20:26N 45°39' E 013°45'0 0.0
2017-Feb-17 19:32N 45°39' E 013°45'0 0.0
2017-Feb-17 18:31N 45°39' E 013°45'0 0.0
2017-Feb-17 17:31N 45°39' E 013°45'0 0.0
2017-Feb-17 16:31N 45°39' E 013°45'0 0.0
2017-Feb-17 15:24N 45°39' E 013°45'0 0.0
2017-Feb-17 14:33N 45°39' E 013°45'0 0.0
2017-Feb-17 13:33N 45°39' E 013°45'1110.6
2017-Feb-17 12:33N 45°34' E 013°31'1818.1
2017-Feb-17 11:33N 45°19' E 013°19'1919.3
2017-Feb-17 10:34N 44°60' E 013°23'2020.1
2017-Feb-17 09:33N 44°42' E 013°37'2020.1
2017-Feb-17 08:34N 44°25' E 013°53'2520.0
2017-Feb-17 07:19N 44°05' E 014°13'  

Dump ship's entire track history